Aguila, AZ (85320)

1:54 PM MST on October 01, 2016 (GMT -0700)
MesoWest | | Change Station

Elev 1604 ft 33.67 °N, 113.31 °W | Updated 25 minutes ago

Clear
Clear
93 °F
Feels Like 92 °F
N
0
Wind Variable Wind from North
Gusts 9.0 mph

Today
High -- | Low -- °F
--% Chance of Precip.
Yesterday
High -- | Low -- °F
Precip. -- in
Pressure 29.94 in
Visibility 10.0 miles
Clouds Clear
Heat Index 92 °F
Dew Point 57 °F
Humidity 30%
Rainfall in
Snow Depth Not available.
6:27 AM 6:16 PM
New Moon, 1% visible
METAR KBXK 012035Z AUTO 17006KT 10SM CLR 33/10 A2994 RMK AO1
Pressure 29.94 in
Visibility 10.0 miles
Clouds Clear
Heat Index 92 °F
Dew Point 57 °F
Humidity 30%
Rainfall in
Snow Depth Not available.
6:27 AM 6:16 PM
New Moon, 1% visible
METAR KBXK 012035Z AUTO 17006KT 10SM CLR 33/10 A2994 RMK AO1

10-Day Weather Forecast

Almanac

Astronomy

Oct. 01, 2016 Rise Set
Actual Time
Civil Twilight
Nautical Twilight
Astronomical Twilight
Moon
Length of Visible Light
Length of Day
Tomorrow will be .
, % of the Moon is Illuminated

Today's Extremes

State Highs State Lows

Community

WunderPhotos

Upload Photos

1,943,017 photos uploaded!

WunderBlog® & News

Nearby

Air Quality

  Air Quality AQ Index Pollutant
Not available.

Snow Depth

Station Depth Elevation

Earthquake Activity

City Distance Mag. Time & Date
Minimum magnitude displayed is 2.5.

Coastal Water Temperatures

Place Temperature

Stations

Nearby Weather Stations

Station Location Temp. Windchill Dew Point Humidity Wind Precip. Elev Updated Type
                   

Watches & Warnings

There are currently no watches in effect.